Time;durP1;ratioP1;P1;durP2;ratioP2;P2;SDS_P1;SDS_P2;PMS_P1;PMS_P2;Temp;Humidity;BMP_temperature;BMP_pressure;BME280_temperature;BME280_humidity;BME280_pressure;Samples;Min_cycle;Max_cycle;Signal;HPM_P1;HPM_P2
2021/12/08 00:01:16;;;;;;;8.30;5.87;;;4.90;99.90;;;;;;5078114;28;20486;-46
2021/12/08 00:03:43;;;;;;;10.23;5.30;;;5.00;99.90;;;;;;5052048;28;20480;-46
2021/12/08 00:06:10;;;;;;;9.40;6.03;;;4.90;99.90;;;;;;5050777;28;20485;-46
2021/12/08 00:08:37;;;;;;;7.40;6.33;;;4.90;99.90;;;;;;5054837;28;20503;-46
2021/12/08 00:13:52;;;;;;;8.83;5.37;;;4.80;99.90;;;;;;5028960;28;20523;-46
2021/12/08 00:16:19;;;;;;;10.23;5.17;;;4.80;99.90;;;;;;5029240;28;20480;-46
2021/12/08 00:18:47;;;;;;;9.20;5.33;;;4.90;99.90;;;;;;5033011;28;20833;-47
2021/12/08 00:21:16;;;;;;;4.97;4.57;;;5.00;99.90;;;;;;5033438;28;20484;-47
2021/12/08 00:23:43;;;;;;;8.37;5.70;;;4.90;99.90;;;;;;5047344;28;20480;-47
2021/12/08 00:26:10;;;;;;;9.00;6.67;;;4.70;99.90;;;;;;5046991;28;20977;-47
2021/12/08 00:28:37;;;;;;;8.27;6.43;;;4.50;99.90;;;;;;5040947;28;20492;-46
2021/12/08 00:31:06;;;;;;;6.00;5.37;;;4.50;99.90;;;;;;5062854;28;20482;-47
2021/12/08 00:33:35;;;;;;;5.83;4.60;;;4.60;99.90;;;;;;5060877;28;20472;-46
2021/12/08 00:36:04;;;;;;;9.03;6.30;;;4.60;99.90;;;;;;5062937;28;21907;-46
2021/12/08 00:38:31;;;;;;;8.80;6.17;;;4.60;99.90;;;;;;5058299;28;20491;-46
2021/12/08 00:40:58;;;;;;;8.20;7.03;;;4.70;99.90;;;;;;5059477;28;20485;-46
2021/12/08 00:43:26;;;;;;;8.50;7.20;;;4.70;99.90;;;;;;5034578;28;20996;-47
2021/12/08 00:45:53;;;;;;;7.50;5.23;;;4.70;99.90;;;;;;5041848;28;20996;-46
2021/12/08 00:48:22;;;;;;;7.53;6.57;;;4.90;99.90;;;;;;5062982;27;20476;-49
2021/12/08 00:50:50;;;;;;;5.17;4.20;;;4.90;99.90;;;;;;5051539;28;20484;-47
2021/12/08 00:53:17;;;;;;;12.57;7.97;;;5.10;99.90;;;;;;5058625;28;20487;-52
2021/12/08 00:55:44;;;;;;;10.60;7.10;;;5.20;99.90;;;;;;5063580;28;20497;-47
2021/12/08 00:58:11;;;;;;;10.00;5.67;;;5.30;99.90;;;;;;5052932;28;21076;-47
2021/12/08 01:00:41;;;;;;;6.60;4.60;;;5.20;99.90;;;;;;5062076;28;20499;-47
2021/12/08 01:03:10;;;;;;;8.97;8.17;;;5.30;99.90;;;;;;5063575;28;20498;-47
2021/12/08 01:05:41;;;;;;;6.90;6.30;;;5.30;99.90;;;;;;5066402;28;20486;-47
2021/12/08 01:08:09;;;;;;;6.00;5.37;;;5.30;99.90;;;;;;5058699;28;20495;-47
2021/12/08 01:10:38;;;;;;;7.47;6.70;;;5.40;99.90;;;;;;5078688;28;20998;-47
2021/12/08 01:13:08;;;;;;;8.43;7.50;;;5.40;99.90;;;;;;5061539;28;20484;-47
2021/12/08 01:15:37;;;;;;;7.67;6.40;;;5.40;99.90;;;;;;5068080;28;21328;-47
2021/12/08 01:18:04;;;;;;;8.20;6.40;;;5.40;99.90;;;;;;5064254;28;20985;-48
2021/12/08 01:20:31;;;;;;;10.37;7.27;;;5.50;99.90;;;;;;5053220;28;20829;-47
2021/12/08 01:23:00;;;;;;;7.53;6.83;;;5.50;99.90;;;;;;5053734;28;20486;-47
2021/12/08 01:25:27;;;;;;;8.03;6.90;;;5.50;99.90;;;;;;5056323;28;20490;-49
2021/12/08 01:27:53;;;;;;;10.20;7.00;;;5.70;99.90;;;;;;5066762;28;21181;-46
2021/12/08 01:30:21;;;;;;;9.80;5.97;;;5.80;99.90;;;;;;5064218;28;20479;-47
2021/12/08 01:32:48;;;;;;;9.57;5.53;;;5.90;99.90;;;;;;5057395;28;20492;-47
2021/12/08 01:35:14;;;;;;;9.13;5.50;;;6.00;99.90;;;;;;5051840;28;20499;-49
2021/12/08 01:37:41;;;;;;;6.87;4.50;;;6.10;99.90;;;;;;5062618;28;20484;-47
2021/12/08 01:40:12;;;;;;;5.77;3.83;;;6.20;99.90;;;;;;5059481;28;20517;-48
2021/12/08 01:42:44;;;;;;;6.20;4.50;;;6.30;99.90;;;;;;5066747;28;20478;-47
2021/12/08 01:47:57;;;;;;;6.07;4.67;;;6.40;99.90;;;;;;5070378;28;20631;-47
2021/12/08 01:50:25;;;;;;;4.37;3.97;;;6.50;99.90;;;;;;5079560;28;21062;-47
2021/12/08 01:52:52;;;;;;;7.30;4.77;;;6.50;99.90;;;;;;5063890;28;20495;-47
2021/12/08 01:55:20;;;;;;;7.57;4.03;;;6.50;99.90;;;;;;5081446;28;20477;-47
2021/12/08 01:57:47;;;;;;;4.00;3.70;;;6.40;99.90;;;;;;5060014;28;20484;-48
2021/12/08 02:00:18;;;;;;;2.73;2.50;;;6.40;99.90;;;;;;5057963;28;20920;-47
2021/12/08 02:02:45;;;;;;;3.63;3.20;;;6.60;99.90;;;;;;5059745;28;20493;-48
2021/12/08 02:05:12;;;;;;;3.00;2.63;;;6.70;99.90;;;;;;5048659;28;20493;-48
2021/12/08 02:07:39;;;;;;;4.17;3.77;;;6.80;99.90;;;;;;5053048;28;20573;-47
2021/12/08 02:10:08;;;;;;;6.47;3.50;;;6.80;99.90;;;;;;5039775;28;20485;-47
2021/12/08 02:12:40;;;;;;;4.80;4.40;;;6.70;99.90;;;;;;5036736;28;20524;-47
2021/12/08 02:15:10;;;;;;;5.93;4.10;;;6.70;99.90;;;;;;5041888;28;20571;-47
2021/12/08 02:17:37;;;;;;;6.43;3.10;;;6.60;99.90;;;;;;5037015;28;20510;-47
2021/12/08 02:20:06;;;;;;;5.90;4.33;;;6.60;99.90;;;;;;5052591;28;20522;-49
2021/12/08 02:22:34;;;;;;;3.60;3.30;;;6.60;99.90;;;;;;5041047;28;21007;-47
2021/12/08 02:25:01;;;;;;;4.80;4.40;;;6.60;99.90;;;;;;5054116;28;20484;-47
2021/12/08 02:27:28;;;;;;;3.33;3.03;;;6.50;99.90;;;;;;5060964;28;20479;-47
2021/12/08 02:30:00;;;;;;;2.33;2.07;;;6.60;99.90;;;;;;5032099;28;20477;-47
2021/12/08 02:46:39;;;;;;;3.40;1.90;;;6.70;99.90;;;;;;5067338;28;20481;-48
2021/12/08 02:46:44;;;;;;;1.60;1.43;;;7.00;99.90;;;;;;5012479;28;20494;-47
2021/12/08 02:49:11;;;;;;;5.10;2.10;;;7.00;99.90;;;;;;5061670;28;20485;-47
2021/12/08 02:51:39;;;;;;;3.53;2.17;;;7.00;99.90;;;;;;5037837;28;20504;-48
2021/12/08 02:54:08;;;;;;;4.47;2.10;;;7.10;99.90;;;;;;5052222;28;20486;-47
2021/12/08 02:56:35;;;;;;;3.57;2.03;;;7.10;99.90;;;;;;5051617;28;20859;-47
2021/12/08 02:59:02;;;;;;;1.90;1.33;;;7.00;99.90;;;;;;5048017;28;20474;-47
2021/12/08 03:01:30;;;;;;;3.70;1.93;;;7.10;99.90;;;;;;5038097;28;20488;-48
2021/12/08 03:03:57;;;;;;;3.70;2.27;;;7.10;99.90;;;;;;5037029;28;20600;-47
2021/12/08 03:06:24;;;;;;;3.97;2.70;;;7.10;99.90;;;;;;5028652;28;20489;-47
2021/12/08 03:08:51;;;;;;;4.80;2.60;;;7.00;99.90;;;;;;5092016;28;20479;-47
2021/12/08 03:11:19;;;;;;;3.63;2.30;;;7.10;99.90;;;;;;5064166;28;20489;-48
2021/12/08 03:14:00;;;;;;;4.27;2.70;;;7.10;99.90;;;;;;5071753;28;20483;-47
2021/12/08 03:16:27;;;;;;;2.67;1.90;;;7.00;99.90;;;;;;5076099;28;20483;-47
2021/12/08 03:18:54;;;;;;;2.00;1.50;;;7.10;99.90;;;;;;5060118;28;20492;-47
2021/12/08 03:21:27;;;;;;;2.10;1.77;;;7.10;99.90;;;;;;5061965;28;20846;-47
2021/12/08 03:24:05;;;;;;;2.77;2.40;;;7.10;99.90;;;;;;5059052;28;20511;-46
2021/12/08 03:26:35;;;;;;;7.47;2.50;;;7.00;99.90;;;;;;5050893;28;20489;-47
2021/12/08 03:29:15;;;;;;;2.67;1.93;;;7.10;99.90;;;;;;5066481;28;20501;-47
2021/12/08 03:31:44;;;;;;;3.80;3.03;;;7.10;99.90;;;;;;5076735;28;20485;-47
2021/12/08 03:34:11;;;;;;;4.30;1.40;;;7.10;99.90;;;;;;5068207;28;20825;-47
2021/12/08 03:36:38;;;;;;;4.13;2.70;;;7.10;99.90;;;;;;5067310;28;20487;-48
2021/12/08 03:39:06;;;;;;;5.43;2.30;;;7.00;99.90;;;;;;5083495;28;20478;-47
2021/12/08 03:41:35;;;;;;;3.47;2.10;;;7.10;99.90;;;;;;5083059;28;20487;-47
2021/12/08 03:44:04;;;;;;;2.17;1.97;;;7.00;99.90;;;;;;5052308;28;20486;-47
2021/12/08 03:46:35;;;;;;;5.33;1.30;;;7.10;99.90;;;;;;5080696;28;20484;-46
2021/12/08 03:49:05;;;;;;;5.80;3.00;;;7.10;99.90;;;;;;5060445;28;20962;-46
2021/12/08 03:51:32;;;;;;;3.00;1.60;;;7.00;99.90;;;;;;5054967;28;20478;-48
2021/12/08 03:53:59;;;;;;;3.77;1.70;;;7.10;99.90;;;;;;5061683;28;20587;-48
2021/12/08 03:56:26;;;;;;;3.60;2.30;;;7.00;99.90;;;;;;5062018;28;20486;-47
2021/12/08 03:58:54;;;;;;;3.57;1.80;;;7.00;99.90;;;;;;5056929;28;20504;-47
2021/12/08 04:04:46;;;;;;;3.33;1.60;;;7.00;99.90;;;;;;5043742;28;20507;-48
2021/12/08 04:07:14;;;;;;;3.73;2.20;;;7.10;99.90;;;;;;5060679;28;20472;-47
2021/12/08 04:09:44;;;;;;;3.40;1.27;;;7.10;99.90;;;;;;5065791;28;21013;-47
2021/12/08 04:12:13;;;;;;;4.20;2.90;;;7.10;99.90;;;;;;5044760;28;20826;-47
2021/12/08 04:14:44;;;;;;;4.90;2.17;;;7.10;99.90;;;;;;5056033;28;20493;-47
2021/12/08 04:17:16;;;;;;;5.17;2.57;;;7.10;99.90;;;;;;5044681;28;21159;-47
2021/12/08 04:19:43;;;;;;;3.23;2.17;;;7.00;99.90;;;;;;5043126;28;20539;-47
2021/12/08 04:22:15;;;;;;;2.97;2.30;;;7.00;99.90;;;;;;5042042;28;20502;-47
2021/12/08 04:24:44;;;;;;;3.47;1.90;;;7.00;99.90;;;;;;5060512;28;20494;-47
2021/12/08 04:27:14;;;;;;;3.17;2.87;;;6.90;99.90;;;;;;5044085;28;21004;-47
2021/12/08 04:29:45;;;;;;;5.00;2.40;;;6.90;99.90;;;;;;5042739;28;20539;-46
2021/12/08 04:32:15;;;;;;;2.70;1.40;;;6.90;99.90;;;;;;5042259;28;20490;-47
2021/12/08 04:34:45;;;;;;;2.90;2.10;;;7.00;99.90;;;;;;5058748;28;20481;-47
2021/12/08 04:37:19;;;;;;;1.60;1.07;;;7.00;99.90;;;;;;5071038;28;20589;-47
2021/12/08 04:39:57;;;;;;;1.80;0.97;;;7.10;99.90;;;;;;5063031;28;20546;-47
2021/12/08 04:42:36;;;;;;;2.73;1.57;;;7.10;99.90;;;;;;5064169;28;20860;-47
2021/12/08 04:45:12;;;;;;;1.97;1.23;;;7.20;99.90;;;;;;5051289;28;20957;-48
2021/12/08 04:47:53;;;;;;;13.00;2.47;;;7.10;99.90;;;;;;5064575;28;20493;-48
2021/12/08 04:50:36;;;;;;;4.90;1.93;;;7.30;99.90;;;;;;5060321;28;20505;-49
2021/12/08 04:53:12;;;;;;;2.97;2.10;;;7.30;99.90;;;;;;5053748;28;20479;-48
2021/12/08 05:01:24;;;;;;;4.67;1.70;;;7.40;99.90;;;;;;5058803;28;20526;-47
2021/12/08 05:04:12;;;;;;;4.00;1.67;;;7.40;99.90;;;;;;5063016;28;20489;-48
2021/12/08 05:06:49;;;;;;;4.13;1.53;;;7.30;99.90;;;;;;5056076;28;20480;-47
2021/12/08 05:09:19;;;;;;;5.63;2.50;;;7.20;99.90;;;;;;5063089;28;20850;-48
2021/12/08 05:11:50;;;;;;;6.70;2.13;;;7.10;99.90;;;;;;5063634;28;20497;-47
2021/12/08 05:14:22;;;;;;;5.30;1.70;;;7.00;99.90;;;;;;5063445;28;20486;-48
2021/12/08 05:17:02;;;;;;;3.20;1.70;;;7.10;99.90;;;;;;5062976;28;21020;-47
2021/12/08 05:19:31;;;;;;;2.13;1.93;;;7.10;99.90;;;;;;5052518;28;20475;-52
2021/12/08 05:22:01;;;;;;;3.40;1.73;;;7.10;99.90;;;;;;5062545;28;20483;-47
2021/12/08 05:24:32;;;;;;;4.90;2.00;;;7.10;99.90;;;;;;5032972;28;20674;-47
2021/12/08 05:27:03;;;;;;;2.70;1.53;;;7.20;99.90;;;;;;5053496;28;20469;-47
2021/12/08 05:29:34;;;;;;;3.03;1.40;;;7.20;99.90;;;;;;5053529;28;20478;-47
2021/12/08 05:32:04;;;;;;;6.67;2.03;;;7.30;99.90;;;;;;5054559;28;20837;-47
2021/12/08 05:34:31;;;;;;;2.20;1.50;;;7.30;99.90;;;;;;5051393;28;20477;-47
2021/12/08 05:36:58;;;;;;;4.47;1.90;;;7.30;99.90;;;;;;5046334;28;20531;-47
2021/12/08 05:39:29;;;;;;;2.87;1.27;;;7.20;99.90;;;;;;5053482;28;20475;-48
2021/12/08 05:41:59;;;;;;;5.03;1.73;;;7.20;99.90;;;;;;5064221;28;20543;-47
2021/12/08 05:44:26;;;;;;;2.20;1.53;;;7.20;99.90;;;;;;5061140;28;20972;-47
2021/12/08 05:46:57;;;;;;;5.60;2.07;;;7.20;99.90;;;;;;5062086;28;20488;-47
2021/12/08 05:49:26;;;;;;;9.87;3.50;;;7.20;99.90;;;;;;5078752;28;20486;-48
2021/12/08 05:51:54;;;;;;;2.97;1.60;;;7.20;99.90;;;;;;5062075;28;20497;-47
2021/12/08 05:54:25;;;;;;;3.40;1.50;;;7.10;99.90;;;;;;5081013;28;20496;-47
2021/12/08 05:56:55;;;;;;;4.50;1.90;;;7.20;99.90;;;;;;5058207;28;20493;-47
2021/12/08 05:59:22;;;;;;;3.63;1.33;;;7.10;99.90;;;;;;5061748;28;20560;-47
2021/12/08 06:01:52;;;;;;;5.60;2.10;;;7.10;99.90;;;;;;5061752;28;20494;-48
2021/12/08 06:04:20;;;;;;;3.30;1.93;;;7.10;99.90;;;;;;5053313;28;20495;-47
2021/12/08 06:06:48;;;;;;;5.03;2.10;;;7.00;99.90;;;;;;5056530;28;21026;-48
2021/12/08 06:09:17;;;;;;;6.90;2.30;;;6.90;99.90;;;;;;5056109;28;20486;-48
2021/12/08 06:11:45;;;;;;;3.73;1.63;;;6.90;99.90;;;;;;5060783;28;20501;-47
2021/12/08 06:14:12;;;;;;;4.40;1.70;;;7.00;99.90;;;;;;5066021;28;20557;-47
2021/12/08 06:16:41;;;;;;;9.53;2.20;;;7.00;99.90;;;;;;5089231;28;20788;-47
2021/12/08 06:19:12;;;;;;;7.73;2.30;;;7.00;99.90;;;;;;5061138;28;20482;-48
2021/12/08 06:21:39;;;;;;;4.87;2.30;;;7.00;99.90;;;;;;5038980;28;20475;-47
2021/12/08 06:24:09;;;;;;;4.30;1.73;;;7.00;99.90;;;;;;5041094;28;20546;-47
2021/12/08 06:26:36;;;;;;;6.67;2.67;;;7.00;99.90;;;;;;5042865;28;20479;-47
2021/12/08 06:29:05;;;;;;;3.30;1.97;;;7.10;99.90;;;;;;5050175;28;20524;-47
2021/12/08 06:31:35;;;;;;;3.83;2.00;;;7.20;99.90;;;;;;5049742;28;20539;-47
2021/12/08 06:34:03;;;;;;;3.20;1.83;;;7.10;99.90;;;;;;5078219;28;20481;-47
2021/12/08 06:36:35;;;;;;;4.30;2.60;;;7.00;99.90;;;;;;5073676;28;20493;-47
2021/12/08 06:39:04;;;;;;;4.10;2.10;;;6.90;99.90;;;;;;5059985;28;20481;-47
2021/12/08 06:41:37;;;;;;;2.70;2.30;;;6.80;99.90;;;;;;5076642;28;20490;-48
2021/12/08 06:44:08;;;;;;;6.93;2.77;;;6.80;99.90;;;;;;5059427;28;20492;-47
2021/12/08 06:46:36;;;;;;;5.67;1.67;;;6.90;99.90;;;;;;5045200;28;20501;-48
2021/12/08 06:49:06;;;;;;;6.57;2.37;;;6.80;99.90;;;;;;5061497;28;20518;-48
2021/12/08 06:51:36;;;;;;;2.50;2.17;;;6.70;99.90;;;;;;5064449;28;20485;-48
2021/12/08 06:54:07;;;;;;;3.67;2.33;;;6.80;99.90;;;;;;5067743;28;20528;-48
2021/12/08 06:56:39;;;;;;;4.60;2.10;;;6.70;99.90;;;;;;5062128;28;20493;-47
2021/12/08 06:59:12;;;;;;;3.37;2.23;;;6.70;99.90;;;;;;5055052;28;20853;-47
2021/12/08 07:01:48;;;;;;;4.03;1.70;;;6.70;99.90;;;;;;5077294;28;20473;-48
2021/12/08 07:04:29;;;;;;;2.47;2.17;;;6.80;99.90;;;;;;5054663;28;20974;-48
2021/12/08 07:07:02;;;;;;;4.93;2.23;;;6.90;99.90;;;;;;5054648;28;20488;-48
2021/12/08 07:09:34;;;;;;;2.47;1.83;;;6.90;99.90;;;;;;5034671;28;20469;-47
2021/12/08 07:12:08;;;;;;;6.77;1.77;;;6.90;99.90;;;;;;5040678;28;20739;-48
2021/12/08 07:14:35;;;;;;;7.80;1.80;;;6.90;99.90;;;;;;5042442;28;20829;-48
2021/12/08 07:17:07;;;;;;;4.13;2.13;;;6.90;99.90;;;;;;5027963;28;20544;-47
2021/12/08 07:19:43;;;;;;;3.87;2.30;;;6.90;99.90;;;;;;5027698;28;20498;-47
2021/12/08 07:22:15;;;;;;;7.97;3.50;;;6.80;99.90;;;;;;5049495;28;20490;-48
2021/12/08 07:24:44;;;;;;;2.83;1.60;;;6.80;99.90;;;;;;5053484;28;20490;-47
2021/12/08 07:27:15;;;;;;;12.20;2.70;;;6.90;99.90;;;;;;5063251;28;20501;-48
2021/12/08 07:29:44;;;;;;;2.20;1.90;;;6.90;99.90;;;;;;5061282;28;20544;-48
2021/12/08 07:32:14;;;;;;;5.50;2.40;;;6.90;99.90;;;;;;5054664;28;20486;-47
2021/12/08 07:34:43;;;;;;;3.70;1.77;;;6.90;99.90;;;;;;5041223;28;20491;-48
2021/12/08 07:37:13;;;;;;;7.50;2.43;;;7.00;99.90;;;;;;5044767;28;20491;-47
2021/12/08 07:39:45;;;;;;;6.00;1.97;;;7.10;99.90;;;;;;5012636;28;20759;-47
2021/12/08 07:42:19;;;;;;;4.13;2.40;;;7.20;99.90;;;;;;5029996;28;21108;-47
2021/12/08 07:44:48;;;;;;;2.53;2.30;;;7.30;99.90;;;;;;5030079;28;20484;-47
2021/12/08 07:47:19;;;;;;;3.80;2.30;;;7.40;99.90;;;;;;5065478;28;20494;-47
2021/12/08 07:49:51;;;;;;;4.30;2.30;;;7.50;99.90;;;;;;5037957;28;20542;-47
2021/12/08 07:52:21;;;;;;;6.90;2.50;;;7.50;99.90;;;;;;5037806;28;20482;-48
2021/12/08 07:54:49;;;;;;;5.67;3.00;;;7.40;99.90;;;;;;5035682;28;20504;-48
2021/12/08 08:00:42;;;;;;;4.80;3.00;;;7.40;99.90;;;;;;5033250;28;20522;-47
2021/12/08 08:03:10;;;;;;;7.73;3.10;;;7.40;99.90;;;;;;5040179;28;20536;-47
2021/12/08 08:05:38;;;;;;;9.03;3.17;;;7.40;99.90;;;;;;5044862;28;20537;-47
2021/12/08 08:08:08;;;;;;;6.83;3.07;;;7.30;99.90;;;;;;5043831;28;20485;-47
2021/12/08 08:10:41;;;;;;;7.17;2.83;;;7.30;99.90;;;;;;5044059;28;21007;-47
2021/12/08 08:13:09;;;;;;;8.00;3.13;;;7.20;99.90;;;;;;5043838;28;21071;-47
2021/12/08 08:15:43;;;;;;;5.80;2.40;;;7.30;99.90;;;;;;5043222;28;21563;-47
2021/12/08 08:18:12;;;;;;;8.80;2.53;;;7.30;99.90;;;;;;5052144;28;20500;-47
2021/12/08 08:20:44;;;;;;;6.17;3.70;;;7.30;99.90;;;;;;5076671;28;20486;-47
2021/12/08 08:23:12;;;;;;;6.57;2.80;;;7.20;99.90;;;;;;5084527;28;20479;-48
2021/12/08 08:29:00;;;;;;;7.93;2.63;;;7.20;99.90;;;;;;5068335;28;20460;-47
2021/12/08 08:31:32;;;;;;;6.40;3.50;;;7.10;99.90;;;;;;5094857;28;20489;-47
2021/12/08 08:33:59;;;;;;;8.47;2.87;;;7.00;99.90;;;;;;5051297;28;20591;-47
2021/12/08 08:36:28;;;;;;;4.57;2.83;;;7.00;99.90;;;;;;5057130;28;20462;-48
2021/12/08 08:39:03;;;;;;;4.63;2.40;;;6.90;99.90;;;;;;5037507;28;20487;-47
2021/12/08 08:41:34;;;;;;;5.50;2.03;;;6.90;99.90;;;;;;5041100;28;20477;-47
2021/12/08 08:44:05;;;;;;;3.13;2.00;;;6.90;99.90;;;;;;5042787;28;20484;-47
2021/12/08 08:46:38;;;;;;;10.93;2.63;;;7.10;99.90;;;;;;5052098;28;21023;-47
2021/12/08 08:49:07;;;;;;;5.20;3.10;;;7.20;99.90;;;;;;5032943;28;20479;-48
2021/12/08 08:51:38;;;;;;;9.37;2.27;;;7.20;99.90;;;;;;5037965;28;20989;-48
2021/12/08 08:54:09;;;;;;;11.90;3.20;;;7.20;99.90;;;;;;5060908;28;20836;-48
2021/12/08 08:56:39;;;;;;;7.40;2.40;;;7.20;99.90;;;;;;5039892;28;20490;-48
2021/12/08 08:59:13;;;;;;;8.37;2.20;;;7.20;99.90;;;;;;5038328;28;20480;-48
2021/12/08 09:01:46;;;;;;;7.97;1.87;;;7.20;99.90;;;;;;5044804;28;20479;-48
2021/12/08 09:04:16;;;;;;;4.10;2.00;;;7.30;99.90;;;;;;5048356;28;20535;-47
2021/12/08 09:06:46;;;;;;;12.13;2.33;;;7.30;99.90;;;;;;5072888;28;20485;-48
2021/12/08 09:09:17;;;;;;;10.10;1.70;;;7.30;99.90;;;;;;5057180;28;21070;-48
2021/12/08 09:11:51;;;;;;;9.50;2.17;;;7.30;99.90;;;;;;5050216;28;20481;-47
2021/12/08 09:14:21;;;;;;;11.13;2.03;;;7.30;99.90;;;;;;5034970;28;20520;-48
2021/12/08 09:16:54;;;;;;;10.77;2.40;;;7.20;99.90;;;;;;5042108;28;20501;-48
2021/12/08 09:19:23;;;;;;;11.57;2.30;;;7.10;99.90;;;;;;5030872;28;20479;-47
2021/12/08 09:22:00;;;;;;;6.70;2.50;;;7.10;99.90;;;;;;5082795;28;20493;-50
2021/12/08 09:24:37;;;;;;;9.23;2.23;;;7.10;99.90;;;;;;5054052;28;20485;-47
2021/12/08 09:27:06;;;;;;;7.23;1.87;;;7.20;99.90;;;;;;5066941;28;20499;-47
2021/12/08 09:29:42;;;;;;;3.90;2.00;;;7.10;99.90;;;;;;5050018;28;21030;-47
2021/12/08 09:32:16;;;;;;;5.30;1.90;;;7.20;99.90;;;;;;5070436;28;20561;-47
2021/12/08 09:34:46;;;;;;;5.83;1.63;;;7.20;99.90;;;;;;5072277;28;20511;-47
2021/12/08 09:37:17;;;;;;;19.57;4.27;;;7.20;99.90;;;;;;5072452;28;21007;-47
2021/12/08 09:39:47;;;;;;;6.53;2.50;;;7.30;99.90;;;;;;5075969;28;20530;-48
2021/12/08 09:42:17;;;;;;;13.47;1.83;;;7.30;99.90;;;;;;5060463;28;20481;-47
2021/12/08 09:44:47;;;;;;;16.57;3.50;;;7.30;99.90;;;;;;5056494;28;20477;-47
2021/12/08 09:47:16;;;;;;;13.40;2.80;;;7.30;99.90;;;;;;5060161;28;21253;-47
2021/12/08 09:49:47;;;;;;;8.00;2.30;;;7.30;99.90;;;;;;5068057;28;20732;-47
2021/12/08 09:52:16;;;;;;;12.57;3.47;;;7.30;99.90;;;;;;5071540;28;20536;-48
2021/12/08 09:54:43;;;;;;;10.67;2.80;;;7.30;99.90;;;;;;5052096;28;20485;-48
2021/12/08 09:57:13;;;;;;;9.30;1.90;;;7.30;99.90;;;;;;5056204;28;20531;-47
2021/12/08 09:59:46;;;;;;;10.87;2.87;;;7.30;99.90;;;;;;5053610;28;20485;-47
2021/12/08 10:02:18;;;;;;;8.53;3.10;;;7.30;99.90;;;;;;5057817;28;20510;-47
2021/12/08 10:04:45;;;;;;;22.80;4.13;;;7.40;99.90;;;;;;5053628;28;20851;-47
2021/12/08 10:07:13;;;;;;;15.33;3.00;;;7.40;99.90;;;;;;5037197;28;20564;-47
2021/12/08 10:09:40;;;;;;;23.33;2.93;;;7.40;99.90;;;;;;5038610;28;20494;-47
2021/12/08 10:12:07;;;;;;;9.23;2.80;;;7.40;99.90;;;;;;5039470;28;20616;-47
2021/12/08 10:14:34;;;;;;;6.50;2.43;;;7.30;99.90;;;;;;5040942;28;20472;-47
2021/12/08 10:17:01;;;;;;;6.23;2.47;;;7.30;99.90;;;;;;5041168;28;20706;-47
2021/12/08 10:19:31;;;;;;;6.30;3.30;;;7.30;99.90;;;;;;5055502;28;20501;-47
2021/12/08 10:21:58;;;;;;;7.53;2.70;;;7.30;99.90;;;;;;5049255;28;21359;-47
2021/12/08 10:24:28;;;;;;;12.90;5.10;;;7.20;99.90;;;;;;5050466;28;20587;-46
2021/12/08 10:27:04;;;;;;;11.93;3.07;;;7.20;99.90;;;;;;5049088;28;20482;-47
2021/12/08 10:29:32;;;;;;;14.57;2.80;;;7.20;99.90;;;;;;5064472;28;20482;-47
2021/12/08 10:32:00;;;;;;;17.87;4.07;;;7.20;99.90;;;;;;5041596;28;20486;-47
2021/12/08 10:34:41;;;;;;;12.40;2.87;;;7.10;99.90;;;;;;5039901;28;20474;-47
2021/12/08 10:37:11;;;;;;;15.40;3.17;;;7.20;99.90;;;;;;5039973;28;20674;-47
2021/12/08 10:39:41;;;;;;;6.90;2.60;;;7.20;99.90;;;;;;5034580;28;20582;-47
2021/12/08 10:42:13;;;;;;;9.17;3.50;;;7.30;99.90;;;;;;5035627;28;20503;-47
2021/12/08 10:44:46;;;;;;;17.93;3.87;;;7.30;99.90;;;;;;5039287;28;20554;-49
2021/12/08 10:47:16;;;;;;;15.93;3.30;;;7.40;99.90;;;;;;5049218;28;20482;-47
2021/12/08 10:55:20;;;;;;;8.63;3.47;;;7.40;99.90;;;;;;5062173;28;20825;-47
2021/12/08 10:57:50;;;;;;;8.20;3.10;;;7.40;99.90;;;;;;5039577;28;20482;-47
2021/12/08 11:00:19;;;;;;;12.50;3.30;;;7.40;99.90;;;;;;5057114;28;20489;-47
2021/12/08 11:02:49;;;;;;;4.67;2.47;;;7.30;99.90;;;;;;5039843;28;20482;-47
2021/12/08 11:05:49;;;;;;;13.30;3.90;;;7.40;99.90;;;;;;5034531;28;20499;-48
2021/12/08 11:08:21;;;;;;;11.17;3.57;;;7.30;99.90;;;;;;5002291;28;20484;-48
2021/12/08 11:10:51;;;;;;;7.40;3.53;;;7.30;99.90;;;;;;5027116;28;20483;-47
2021/12/08 11:13:20;;;;;;;7.17;3.10;;;7.30;99.90;;;;;;5018188;28;20966;-47
2021/12/08 11:15:48;;;;;;;5.30;2.83;;;7.30;99.90;;;;;;5014776;28;20576;-47
2021/12/08 11:18:17;;;;;;;4.50;2.47;;;7.30;99.90;;;;;;5027937;28;21036;-47
2021/12/08 11:20:51;;;;;;;14.90;2.40;;;7.30;99.90;;;;;;5028078;28;20491;-47
2021/12/08 11:23:38;;;;;;;10.20;3.03;;;7.30;99.90;;;;;;5005673;28;20480;-47
2021/12/08 11:26:15;;;;;;;9.97;2.13;;;7.30;99.90;;;;;;5004192;28;20698;-47
2021/12/08 11:28:43;;;;;;;12.67;4.10;;;7.30;99.90;;;;;;5022734;28;20889;-47
2021/12/08 11:31:13;;;;;;;9.20;2.83;;;7.30;99.90;;;;;;5045640;28;20513;-47
2021/12/08 11:33:44;;;;;;;8.50;3.27;;;7.30;99.90;;;;;;5038261;28;20821;-48
2021/12/08 11:36:15;;;;;;;10.53;2.30;;;7.30;99.90;;;;;;5033717;28;20482;-47
2021/12/08 11:38:43;;;;;;;7.37;3.37;;;7.30;99.90;;;;;;5041239;28;20493;-47
2021/12/08 11:41:26;;;;;;;8.60;2.90;;;7.30;99.90;;;;;;5030457;28;20476;-47
2021/12/08 11:43:54;;;;;;;13.13;2.60;;;7.40;99.90;;;;;;5022297;28;21281;-47
2021/12/08 11:46:23;;;;;;;9.43;3.17;;;7.40;99.90;;;;;;5021068;28;20488;-48
2021/12/08 11:49:03;;;;;;;9.60;1.87;;;7.40;99.90;;;;;;5022704;28;21117;-47
2021/12/08 11:51:32;;;;;;;4.77;2.20;;;7.50;99.90;;;;;;5024065;28;20484;-47
2021/12/08 11:54:00;;;;;;;12.27;3.00;;;7.50;99.90;;;;;;5045877;28;20478;-47
2021/12/08 11:56:36;;;;;;;4.07;2.00;;;7.50;99.90;;;;;;5017705;28;20490;-47
2021/12/08 11:59:06;;;;;;;7.43;2.93;;;7.60;99.90;;;;;;5043407;28;20888;-47
2021/12/08 12:01:33;;;;;;;17.83;3.13;;;7.60;99.90;;;;;;5040787;28;20490;-47
2021/12/08 12:04:00;;;;;;;12.07;4.50;;;7.60;99.90;;;;;;5044523;28;20936;-47
2021/12/08 12:06:28;;;;;;;12.20;3.00;;;7.70;99.90;;;;;;5041275;28;20489;-47
2021/12/08 12:09:01;;;;;;;7.37;3.20;;;7.70;99.90;;;;;;5041748;28;20516;-47
2021/12/08 12:11:29;;;;;;;8.37;2.33;;;7.70;99.90;;;;;;5034374;28;20498;-47
2021/12/08 12:13:58;;;;;;;9.00;2.77;;;7.70;99.90;;;;;;5068577;28;20502;-47
2021/12/08 12:16:25;;;;;;;10.10;2.13;;;7.70;99.90;;;;;;5038377;28;20487;-47
2021/12/08 12:18:55;;;;;;;7.80;2.23;;;7.80;99.90;;;;;;5058982;28;20942;-47
2021/12/08 12:21:30;;;;;;;8.30;2.50;;;7.80;99.90;;;;;;5055199;28;20870;-48
2021/12/08 12:24:13;;;;;;;15.30;2.90;;;7.80;99.90;;;;;;5043088;28;20940;-48
2021/12/08 12:26:53;;;;;;;8.17;2.10;;;7.80;99.90;;;;;;5050407;28;20484;-47
2021/12/08 12:29:36;;;;;;;15.23;3.43;;;7.80;99.90;;;;;;5052892;28;20476;-47
2021/12/08 12:32:06;;;;;;;7.73;1.80;;;7.80;99.90;;;;;;5055891;28;20477;-47
2021/12/08 12:34:38;;;;;;;9.17;2.10;;;7.90;99.90;;;;;;5029142;28;20482;-47
2021/12/08 12:37:16;;;;;;;9.23;2.23;;;7.80;99.90;;;;;;5041179;28;20496;-47
2021/12/08 12:39:50;;;;;;;11.23;2.20;;;7.80;99.90;;;;;;5051050;28;21138;-47
2021/12/08 12:42:18;;;;;;;7.57;3.17;;;7.80;99.90;;;;;;5030193;28;20488;-46
2021/12/08 12:45:06;;;;;;;10.00;3.00;;;7.80;99.90;;;;;;5026018;28;20477;-47
2021/12/08 12:47:33;;;;;;;5.80;2.50;;;7.80;99.90;;;;;;5038214;28;21191;-46
2021/12/08 12:50:16;;;;;;;7.50;2.10;;;7.80;99.90;;;;;;5042173;28;20474;-47
2021/12/08 12:52:44;;;;;;;7.60;3.23;;;7.90;99.90;;;;;;5025612;28;20999;-48
2021/12/08 12:55:16;;;;;;;13.80;3.70;;;7.90;99.90;;;;;;5047501;28;20486;-48
2021/12/08 12:58:16;;;;;;;13.63;3.00;;;7.80;99.90;;;;;;5046628;28;20478;-47
2021/12/08 13:00:51;;;;;;;11.27;3.57;;;7.70;99.70;;;;;;4970270;28;20560;-48
2021/12/08 13:03:42;;;;;;;6.90;2.30;;;7.70;99.90;;;;;;5028484;28;21033;-47
2021/12/08 13:06:11;;;;;;;5.77;2.40;;;7.80;99.90;;;;;;5047056;28;20904;-48
2021/12/08 13:08:40;;;;;;;10.30;2.10;;;7.80;99.90;;;;;;5061013;28;20494;-47
2021/12/08 13:11:41;;;;;;;14.03;3.00;;;7.80;99.90;;;;;;5036558;28;20498;-47
2021/12/08 13:14:20;;;;;;;19.70;2.87;;;7.70;99.90;;;;;;5042284;28;20489;-47
2021/12/08 13:16:47;;;;;;;14.20;2.80;;;7.70;99.90;;;;;;5043689;28;20483;-47
2021/12/08 13:19:13;;;;;;;9.40;3.37;;;7.80;99.90;;;;;;5053436;28;20500;-49
2021/12/08 13:21:42;;;;;;;10.63;2.93;;;7.80;99.90;;;;;;5053970;28;20618;-47
2021/12/08 13:24:32;;;;;;;8.63;3.07;;;7.80;99.90;;;;;;5042588;28;21034;-47
2021/12/08 13:27:06;;;;;;;6.60;1.97;;;7.80;99.90;;;;;;5061219;28;20566;-47
2021/12/08 13:29:35;;;;;;;14.60;3.30;;;7.90;99.90;;;;;;5060048;28;20559;-47
2021/12/08 13:32:11;;;;;;;10.97;2.83;;;7.90;99.90;;;;;;5059033;28;20591;-47
2021/12/08 13:34:41;;;;;;;8.13;3.27;;;8.00;99.90;;;;;;5057378;28;20553;-48
2021/12/08 13:37:20;;;;;;;10.83;4.60;;;8.00;99.90;;;;;;5052996;28;20490;-47
2021/12/08 13:39:49;;;;;;;7.70;3.33;;;7.90;99.90;;;;;;5085836;28;21304;-47
2021/12/08 13:42:27;;;;;;;5.50;2.97;;;8.00;99.90;;;;;;5047434;28;20605;-47
2021/12/08 13:44:56;;;;;;;5.97;2.13;;;8.00;99.80;;;;;;5041596;28;20470;-47
2021/12/08 13:47:29;;;;;;;9.73;2.83;;;8.10;99.90;;;;;;5047499;28;21001;-47
2021/12/08 13:49:58;;;;;;;10.13;3.00;;;8.10;99.70;;;;;;5046566;28;20498;-47
2021/12/08 13:52:30;;;;;;;10.20;3.80;;;8.00;99.40;;;;;;5053385;28;20525;-47